Time;durP1;ratioP1;P1;durP2;ratioP2;P2;SDS_P1;SDS_P2;PMS_P1;PMS_P2;Temp;Humidity;BMP_temperature;BMP_pressure;BME280_temperature;BME280_humidity;BME280_pressure;Samples;Min_cycle;Max_cycle;Signal;HPM_P1;HPM_P2
2024/02/10 00:01:46;;;;;;;12.02;3.75;;;;;;;;;;5075961;28;20017;-29
2024/02/10 00:04:13;;;;;;;13.80;3.88;;;;;;;;;;5076475;28;20484;-28
2024/02/10 00:06:39;;;;;;;8.90;3.70;;;;;;;;;;5076018;28;20074;-29
2024/02/10 00:09:08;;;;;;;10.93;4.10;;;;;;;;;;5076566;28;20017;-29
2024/02/10 00:11:33;;;;;;;12.52;3.88;;;;;;;;;;5076493;28;20071;-29
2024/02/10 00:13:59;;;;;;;13.40;3.92;;;;;;;;;;5076540;28;20028;-29
2024/02/10 00:16:28;;;;;;;9.95;3.80;;;;;;;;;;5076375;28;20016;-29
2024/02/10 00:18:53;;;;;;;10.13;3.70;;;;;;;;;;5076456;28;20466;-28
2024/02/10 00:21:21;;;;;;;6.63;3.47;;;;;;;;;;5076410;28;20020;-28
2024/02/10 00:23:49;;;;;;;10.25;3.70;;;;;;;;;;5075990;28;20472;-28
2024/02/10 00:26:21;;;;;;;13.35;4.05;;;;;;;;;;5076302;28;20016;-29
2024/02/10 00:28:46;;;;;;;12.20;3.90;;;;;;;;;;5076268;28;20378;-29
2024/02/10 00:31:12;;;;;;;10.30;3.67;;;;;;;;;;5075909;28;20103;-29
2024/02/10 00:33:37;;;;;;;13.82;3.78;;;;;;;;;;5076193;28;20083;-29
2024/02/10 00:36:02;;;;;;;10.80;3.90;;;;;;;;;;5075785;28;20016;-30
2024/02/10 00:38:27;;;;;;;12.00;3.55;;;;;;;;;;5075949;28;20283;-28
2024/02/10 00:40:53;;;;;;;11.45;4.80;;;;;;;;;;5074568;28;20062;-29
2024/02/10 00:43:18;;;;;;;11.83;3.93;;;;;;;;;;5075744;28;20139;-30
2024/02/10 00:45:46;;;;;;;8.83;3.83;;;;;;;;;;5076292;28;20338;-29
2024/02/10 00:48:11;;;;;;;8.65;3.80;;;;;;;;;;5075494;28;20733;-29
2024/02/10 00:50:36;;;;;;;12.17;3.37;;;;;;;;;;5076078;28;20127;-29
2024/02/10 00:53:02;;;;;;;9.73;3.40;;;;;;;;;;5075870;28;20250;-29
2024/02/10 00:55:30;;;;;;;7.70;3.83;;;;;;;;;;5074507;28;20024;-29
2024/02/10 00:57:55;;;;;;;8.32;3.70;;;;;;;;;;5075670;28;20044;-29
2024/02/10 01:00:22;;;;;;;9.30;3.30;;;;;;;;;;5075646;28;20013;-29
2024/02/10 01:02:47;;;;;;;11.73;4.30;;;;;;;;;;5075323;28;20120;-30
2024/02/10 01:05:12;;;;;;;9.25;3.60;;;;;;;;;;5075273;28;20045;-32
2024/02/10 01:07:39;;;;;;;12.25;3.75;;;;;;;;;;5075858;28;20352;-29
2024/02/10 01:10:07;;;;;;;9.63;3.90;;;;;;;;;;5075183;28;20021;-29
2024/02/10 01:12:32;;;;;;;12.63;4.30;;;;;;;;;;5074997;28;20013;-30
2024/02/10 01:14:58;;;;;;;9.10;3.63;;;;;;;;;;5075680;28;20070;-29
2024/02/10 01:17:24;;;;;;;14.73;4.45;;;;;;;;;;5075205;28;20021;-29
2024/02/10 01:19:50;;;;;;;14.68;4.32;;;;;;;;;;5075366;28;20513;-29
2024/02/10 01:22:29;;;;;;;12.25;3.92;;;;;;;;;;5074934;28;20016;-30
2024/02/10 01:24:57;;;;;;;9.52;3.80;;;;;;;;;;5075231;28;20025;-29
2024/02/10 01:27:26;;;;;;;10.30;3.58;;;;;;;;;;5074942;28;20521;-29
2024/02/10 01:29:52;;;;;;;9.38;4.25;;;;;;;;;;5075160;28;20070;-29
2024/02/10 01:32:21;;;;;;;9.30;3.67;;;;;;;;;;5074766;28;20028;-31
2024/02/10 01:34:47;;;;;;;12.70;3.88;;;;;;;;;;5074721;28;20032;-30
2024/02/10 01:37:17;;;;;;;8.45;3.90;;;;;;;;;;5074868;28;20017;-29
2024/02/10 01:39:46;;;;;;;11.25;3.80;;;;;;;;;;5075677;28;20546;-29
2024/02/10 01:42:22;;;;;;;13.27;4.97;;;;;;;;;;5074526;28;20017;-30
2024/02/10 01:44:47;;;;;;;12.68;3.92;;;;;;;;;;5074501;28;20083;-29
2024/02/10 01:47:13;;;;;;;9.70;3.88;;;;;;;;;;5074768;28;20063;-30
2024/02/10 01:49:38;;;;;;;11.48;3.97;;;;;;;;;;5073163;28;20020;-29
2024/02/10 01:52:07;;;;;;;11.70;4.30;;;;;;;;;;5074354;28;20022;-29
2024/02/10 01:54:32;;;;;;;12.38;4.07;;;;;;;;;;5074309;28;20017;-29
2024/02/10 01:56:58;;;;;;;11.70;4.10;;;;;;;;;;5074255;28;20173;-29
2024/02/10 01:59:23;;;;;;;12.82;4.10;;;;;;;;;;5074235;28;20353;-29
2024/02/10 02:01:49;;;;;;;8.73;3.95;;;;;;;;;;5073935;28;20066;-29
2024/02/10 02:04:15;;;;;;;9.80;4.18;;;;;;;;;;5074462;28;20062;-30
2024/02/10 02:06:40;;;;;;;11.32;4.13;;;;;;;;;;5073946;28;20063;-29
2024/02/10 02:09:06;;;;;;;10.25;4.00;;;;;;;;;;5074086;28;20460;-29
2024/02/10 02:11:31;;;;;;;12.90;3.90;;;;;;;;;;5072728;28;20017;-29
2024/02/10 02:14:00;;;;;;;15.80;4.45;;;;;;;;;;5074264;28;20026;-29
2024/02/10 02:16:28;;;;;;;10.20;3.78;;;;;;;;;;5073866;28;20073;-29
2024/02/10 02:18:55;;;;;;;11.52;4.57;;;;;;;;;;5073892;28;20023;-29
2024/02/10 02:21:22;;;;;;;10.43;4.30;;;;;;;;;;5074075;28;20020;-29
2024/02/10 02:23:47;;;;;;;10.40;4.38;;;;;;;;;;5073757;28;20091;-29
2024/02/10 02:26:12;;;;;;;10.90;4.10;;;;;;;;;;5074054;28;20040;-29
2024/02/10 02:28:38;;;;;;;11.83;4.00;;;;;;;;;;5073679;28;20021;-29
2024/02/10 02:31:04;;;;;;;9.48;4.40;;;;;;;;;;5073671;28;20328;-29
2024/02/10 02:33:31;;;;;;;12.48;4.28;;;;;;;;;;5073932;28;20027;-29
2024/02/10 02:35:56;;;;;;;12.70;4.30;;;;;;;;;;5073950;28;20506;-29
2024/02/10 02:38:23;;;;;;;10.53;4.30;;;;;;;;;;5074121;28;20021;-29
2024/02/10 02:40:49;;;;;;;10.93;3.80;;;;;;;;;;5073868;28;20281;-29
2024/02/10 02:43:14;;;;;;;11.00;4.07;;;;;;;;;;5073572;28;20020;-29
2024/02/10 02:45:42;;;;;;;14.38;3.85;;;;;;;;;;5073704;28;20096;-29
2024/02/10 02:48:10;;;;;;;9.15;4.10;;;;;;;;;;5073479;28;20025;-29
2024/02/10 02:50:36;;;;;;;13.15;4.38;;;;;;;;;;5073371;28;20044;-29
2024/02/10 02:53:03;;;;;;;7.43;3.65;;;;;;;;;;5073832;28;20020;-30
2024/02/10 02:55:29;;;;;;;10.73;4.30;;;;;;;;;;5072256;28;20012;-29
2024/02/10 02:57:54;;;;;;;10.20;3.95;;;;;;;;;;5073642;28;20042;-29
2024/02/10 03:00:19;;;;;;;10.50;3.95;;;;;;;;;;5073302;28;20456;-29
2024/02/10 03:02:46;;;;;;;8.73;4.18;;;;;;;;;;5073894;28;20031;-29
2024/02/10 03:05:11;;;;;;;10.07;3.83;;;;;;;;;;5073398;28;20502;-29
2024/02/10 03:07:40;;;;;;;7.60;3.72;;;;;;;;;;5073581;28;20016;-29
2024/02/10 03:10:05;;;;;;;10.15;4.20;;;;;;;;;;5074062;28;20017;-29
2024/02/10 03:12:31;;;;;;;7.85;3.85;;;;;;;;;;5075336;28;20032;-29
2024/02/10 03:14:59;;;;;;;9.45;4.03;;;;;;;;;;5077717;28;20026;-29
2024/02/10 03:17:24;;;;;;;10.15;3.92;;;;;;;;;;5077576;28;20020;-29
2024/02/10 03:19:49;;;;;;;9.17;3.87;;;;;;;;;;5077617;28;20198;-29
2024/02/10 03:22:14;;;;;;;7.70;3.47;;;;;;;;;;5077574;28;20281;-29
2024/02/10 03:24:47;;;;;;;7.88;3.72;;;;;;;;;;5077573;28;20013;-29
2024/02/10 03:27:12;;;;;;;9.02;4.15;;;;;;;;;;5077497;28;20035;-29
2024/02/10 03:29:37;;;;;;;6.60;3.63;;;;;;;;;;5077442;28;20017;-29
2024/02/10 03:32:04;;;;;;;9.77;3.70;;;;;;;;;;5076650;28;20607;-29
2024/02/10 03:34:29;;;;;;;10.90;3.95;;;;;;;;;;5076874;28;20028;-29
2024/02/10 03:36:54;;;;;;;7.10;3.47;;;;;;;;;;5075950;28;20027;-29
2024/02/10 03:39:19;;;;;;;5.27;3.40;;;;;;;;;;5076165;28;20259;-29
2024/02/10 03:41:44;;;;;;;8.03;3.87;;;;;;;;;;5076266;28;20257;-29
2024/02/10 03:44:09;;;;;;;8.82;3.80;;;;;;;;;;5076660;28;20266;-29
2024/02/10 03:46:35;;;;;;;6.43;3.53;;;;;;;;;;5077426;28;20132;-28
2024/02/10 03:49:00;;;;;;;7.97;3.55;;;;;;;;;;5077029;28;20334;-28
2024/02/10 03:51:26;;;;;;;9.48;3.80;;;;;;;;;;5076760;28;20091;-29
2024/02/10 03:53:51;;;;;;;9.85;3.85;;;;;;;;;;5076768;28;20092;-33
2024/02/10 03:56:16;;;;;;;12.95;4.03;;;;;;;;;;5077262;28;20021;-33
2024/02/10 03:58:43;;;;;;;9.43;4.30;;;;;;;;;;5076642;28;20035;-35
2024/02/10 04:01:13;;;;;;;7.50;3.53;;;;;;;;;;5075273;28;20263;-33
2024/02/10 04:03:38;;;;;;;9.20;4.57;;;;;;;;;;5076788;28;20017;-33
2024/02/10 04:06:04;;;;;;;7.32;3.53;;;;;;;;;;5075053;28;20045;-33
2024/02/10 04:08:29;;;;;;;7.60;3.78;;;;;;;;;;5076320;28;20043;-33
2024/02/10 04:10:54;;;;;;;11.15;4.13;;;;;;;;;;5076408;28;20515;-33
2024/02/10 04:13:19;;;;;;;14.75;4.22;;;;;;;;;;5076463;28;20020;-33
2024/02/10 04:15:44;;;;;;;6.28;3.65;;;;;;;;;;5075075;28;20051;-33
2024/02/10 04:18:09;;;;;;;6.77;3.40;;;;;;;;;;5076625;28;20064;-33
2024/02/10 04:20:35;;;;;;;10.97;4.10;;;;;;;;;;5076722;28;20259;-33
2024/02/10 04:23:03;;;;;;;11.47;3.83;;;;;;;;;;5075577;28;20304;-33
2024/02/10 04:25:31;;;;;;;9.00;3.60;;;;;;;;;;5076053;28;20254;-33
2024/02/10 04:28:02;;;;;;;11.38;4.20;;;;;;;;;;5076047;28;20110;-33
2024/02/10 04:30:27;;;;;;;10.68;3.88;;;;;;;;;;5076020;28;20027;-33
2024/02/10 04:32:52;;;;;;;10.30;3.70;;;;;;;;;;5076273;28;20024;-33
2024/02/10 04:35:19;;;;;;;5.63;3.80;;;;;;;;;;5075899;28;20278;-33
2024/02/10 04:37:51;;;;;;;8.50;3.63;;;;;;;;;;5076132;28;20289;-33
2024/02/10 04:40:17;;;;;;;12.27;3.85;;;;;;;;;;5076093;28;20459;-33
2024/02/10 04:42:42;;;;;;;9.07;3.83;;;;;;;;;;5075791;28;20024;-32
2024/02/10 04:45:08;;;;;;;9.63;4.40;;;;;;;;;;5075744;28;20021;-33
2024/02/10 04:47:34;;;;;;;10.55;4.13;;;;;;;;;;5076001;28;20686;-33
2024/02/10 04:50:01;;;;;;;11.95;4.20;;;;;;;;;;5075640;28;20053;-33
2024/02/10 04:52:26;;;;;;;6.60;3.47;;;;;;;;;;5075894;28;20032;-33
2024/02/10 04:54:53;;;;;;;9.60;3.58;;;;;;;;;;5075638;28;20047;-33
2024/02/10 04:57:25;;;;;;;7.82;3.33;;;;;;;;;;5076027;28;20095;-33
2024/02/10 04:59:50;;;;;;;7.83;3.90;;;;;;;;;;5076070;28;20012;-33
2024/02/10 05:02:16;;;;;;;9.63;3.70;;;;;;;;;;5075472;28;20380;-33
2024/02/10 05:04:43;;;;;;;7.05;3.42;;;;;;;;;;5075547;28;20308;-32
2024/02/10 05:07:10;;;;;;;7.68;3.47;;;;;;;;;;5075642;28;20020;-33
2024/02/10 05:09:35;;;;;;;8.57;3.83;;;;;;;;;;5075259;28;20028;-33
2024/02/10 05:12:03;;;;;;;12.80;3.80;;;;;;;;;;5075216;28;20020;-32
2024/02/10 05:14:28;;;;;;;6.20;3.40;;;;;;;;;;5075182;28;20305;-33
2024/02/10 05:16:55;;;;;;;6.57;3.40;;;;;;;;;;5075309;28;20024;-33
2024/02/10 05:19:20;;;;;;;8.82;3.75;;;;;;;;;;5073910;28;20270;-33
2024/02/10 05:21:45;;;;;;;7.87;3.43;;;;;;;;;;5075357;28;20028;-32
2024/02/10 05:24:14;;;;;;;7.13;3.40;;;;;;;;;;5074980;28;20657;-33
2024/02/10 05:26:40;;;;;;;10.23;3.50;;;;;;;;;;5074840;28;20255;-35
2024/02/10 05:29:07;;;;;;;6.95;3.30;;;;;;;;;;5075265;28;20013;-33
2024/02/10 05:31:38;;;;;;;7.55;3.45;;;;;;;;;;5075148;28;20020;-34
2024/02/10 05:34:04;;;;;;;6.70;3.30;;;;;;;;;;5074769;28;20044;-34
2024/02/10 05:36:30;;;;;;;8.80;3.25;;;;;;;;;;5074031;28;20094;-33
2024/02/10 05:38:56;;;;;;;8.00;3.97;;;;;;;;;;5074978;28;20190;-33
2024/02/10 05:41:23;;;;;;;7.25;3.13;;;;;;;;;;5074557;28;20027;-33
2024/02/10 05:43:49;;;;;;;10.07;3.05;;;;;;;;;;5074845;28;20028;-42
2024/02/10 05:46:15;;;;;;;5.70;2.80;;;;;;;;;;5074672;28;20410;-34
2024/02/10 05:48:40;;;;;;;14.07;4.45;;;;;;;;;;5074845;28;20266;-33
2024/02/10 05:51:05;;;;;;;8.45;3.78;;;;;;;;;;5074750;28;20016;-33
2024/02/10 05:53:31;;;;;;;9.65;3.50;;;;;;;;;;5074425;28;20020;-32
2024/02/10 05:55:56;;;;;;;8.68;3.40;;;;;;;;;;5074361;28;20498;-33
2024/02/10 05:58:23;;;;;;;6.32;3.28;;;;;;;;;;5074203;28;20024;-33
2024/02/10 06:00:48;;;;;;;11.27;3.72;;;;;;;;;;5074528;28;20503;-33
2024/02/10 06:03:14;;;;;;;7.20;3.40;;;;;;;;;;5074172;28;20116;-33
2024/02/10 06:05:41;;;;;;;6.30;3.08;;;;;;;;;;5074004;28;20080;-33
2024/02/10 06:08:10;;;;;;;7.07;3.10;;;;;;;;;;5074472;28;20475;-33
2024/02/10 06:10:35;;;;;;;5.70;3.05;;;;;;;;;;5074392;28;20032;-33
2024/02/10 06:13:01;;;;;;;8.83;3.37;;;;;;;;;;5074045;28;20028;-32
2024/02/10 06:15:29;;;;;;;7.00;3.30;;;;;;;;;;5074319;28;20262;-33
2024/02/10 06:17:55;;;;;;;6.50;3.17;;;;;;;;;;5074194;28;20047;-33
2024/02/10 06:20:23;;;;;;;6.40;3.03;;;;;;;;;;5074272;28;20440;-33
2024/02/10 06:22:52;;;;;;;5.53;3.20;;;;;;;;;;5074179;28;20012;-34
2024/02/10 06:25:22;;;;;;;8.73;2.92;;;;;;;;;;5074173;28;20474;-32
2024/02/10 06:27:48;;;;;;;7.65;3.22;;;;;;;;;;5073935;28;20025;-33
2024/02/10 06:30:16;;;;;;;6.03;2.90;;;;;;;;;;5074343;28;20035;-34
2024/02/10 06:32:43;;;;;;;6.15;3.20;;;;;;;;;;5074318;28;20020;-33
2024/02/10 06:35:09;;;;;;;5.05;3.00;;;;;;;;;;5074027;28;20028;-34
2024/02/10 06:37:35;;;;;;;8.55;4.45;;;;;;;;;;5072442;28;20028;-34
2024/02/10 06:40:04;;;;;;;5.20;3.00;;;;;;;;;;5073600;28;20008;-34
2024/02/10 06:42:35;;;;;;;6.32;3.13;;;;;;;;;;5074162;28;20035;-33
2024/02/10 06:45:11;;;;;;;7.72;2.85;;;;;;;;;;5073842;28;20426;-33
2024/02/10 06:47:38;;;;;;;5.28;3.03;;;;;;;;;;5073381;28;20501;-34
2024/02/10 06:50:03;;;;;;;5.78;3.10;;;;;;;;;;5073314;28;20100;-33
2024/02/10 06:52:32;;;;;;;7.43;2.95;;;;;;;;;;5073494;28;20059;-33
2024/02/10 06:54:57;;;;;;;6.78;3.10;;;;;;;;;;5073735;28;20027;-34
2024/02/10 06:57:23;;;;;;;8.87;3.30;;;;;;;;;;5073440;28;20020;-34
2024/02/10 06:59:49;;;;;;;7.15;3.10;;;;;;;;;;5073601;28;20258;-34
2024/02/10 07:02:14;;;;;;;6.95;3.40;;;;;;;;;;5073617;28;20009;-33
2024/02/10 07:04:41;;;;;;;5.40;3.03;;;;;;;;;;5073233;28;20357;-33
2024/02/10 07:07:06;;;;;;;9.10;3.25;;;;;;;;;;5073651;28;20035;-34
2024/02/10 07:09:35;;;;;;;5.80;2.83;;;;;;;;;;5073871;28;20020;-34
2024/02/10 07:12:00;;;;;;;9.02;3.13;;;;;;;;;;5073539;28;20025;-34
2024/02/10 07:14:26;;;;;;;4.80;2.80;;;;;;;;;;5073338;28;20476;-35
2024/02/10 07:16:51;;;;;;;6.05;2.80;;;;;;;;;;5073413;28;20027;-35
2024/02/10 07:19:16;;;;;;;5.22;3.22;;;;;;;;;;5073475;28;20020;-34
2024/02/10 07:21:45;;;;;;;7.00;3.22;;;;;;;;;;5073448;28;20495;-34
2024/02/10 07:24:12;;;;;;;5.78;2.97;;;;;;;;;;5073147;28;20478;-33
2024/02/10 07:26:37;;;;;;;6.78;3.50;;;;;;;;;;5073101;28;20113;-33
2024/02/10 07:29:03;;;;;;;7.57;3.10;;;;;;;;;;5071871;28;20055;-33
2024/02/10 07:31:28;;;;;;;4.55;2.90;;;;;;;;;;5073693;28;20459;-33
2024/02/10 07:33:58;;;;;;;10.70;3.22;;;;;;;;;;5073459;28;20412;-33
2024/02/10 07:36:37;;;;;;;7.05;2.75;;;;;;;;;;5073316;28;20015;-34
2024/02/10 07:39:07;;;;;;;6.72;3.03;;;;;;;;;;5071980;28;20021;-33
2024/02/10 07:41:38;;;;;;;12.50;4.65;;;;;;;;;;5073142;28;20019;-34
2024/02/10 07:44:03;;;;;;;6.68;3.05;;;;;;;;;;5073080;28;20021;-34
2024/02/10 07:46:32;;;;;;;6.35;2.90;;;;;;;;;;5072954;28;20035;-34
2024/02/10 07:49:01;;;;;;;6.72;3.15;;;;;;;;;;5072969;28;20025;-34
2024/02/10 07:51:27;;;;;;;10.02;2.97;;;;;;;;;;5073242;28;20034;-34
2024/02/10 07:53:52;;;;;;;7.22;2.97;;;;;;;;;;5073226;28;20462;-34
2024/02/10 07:56:20;;;;;;;8.07;3.22;;;;;;;;;;5073122;28;20104;-34
2024/02/10 07:58:45;;;;;;;7.90;2.85;;;;;;;;;;5073643;28;20028;-34
2024/02/10 08:01:11;;;;;;;8.37;3.00;;;;;;;;;;5076490;28;20012;-34
2024/02/10 08:03:36;;;;;;;6.97;3.00;;;;;;;;;;5076534;28;20259;-34
2024/02/10 08:06:04;;;;;;;6.03;2.90;;;;;;;;;;5076396;28;20132;-35
2024/02/10 08:08:29;;;;;;;8.60;3.10;;;;;;;;;;5076728;28;20273;-34
2024/02/10 08:10:54;;;;;;;5.10;2.90;;;;;;;;;;5076411;28;20020;-36
2024/02/10 08:13:24;;;;;;;6.78;2.70;;;;;;;;;;5076609;28;20028;-35
2024/02/10 08:15:49;;;;;;;4.68;2.75;;;;;;;;;;5076297;28;20024;-35
2024/02/10 08:18:15;;;;;;;4.87;2.67;;;;;;;;;;5076224;28;20029;-34
2024/02/10 08:20:41;;;;;;;7.88;2.90;;;;;;;;;;5076293;28;20269;-35
2024/02/10 08:23:12;;;;;;;5.80;3.03;;;;;;;;;;5076498;28;20020;-35
2024/02/10 08:25:38;;;;;;;8.25;2.80;;;;;;;;;;5076170;28;20013;-35
2024/02/10 08:28:06;;;;;;;6.95;2.85;;;;;;;;;;5076014;28;20082;-34
2024/02/10 08:30:31;;;;;;;7.03;2.88;;;;;;;;;;5076221;28;20015;-33
2024/02/10 08:32:58;;;;;;;7.13;3.08;;;;;;;;;;5076601;28;20021;-33
2024/02/10 08:35:27;;;;;;;13.48;3.60;;;;;;;;;;5075859;28;20046;-33
2024/02/10 08:37:53;;;;;;;6.45;3.20;;;;;;;;;;5076081;28;20025;-33
2024/02/10 08:40:18;;;;;;;7.55;3.22;;;;;;;;;;5075759;28;20035;-33
2024/02/10 08:42:43;;;;;;;6.20;3.60;;;;;;;;;;5076430;28;20017;-33
2024/02/10 08:45:11;;;;;;;7.23;3.63;;;;;;;;;;5076145;28;20247;-34
2024/02/10 08:47:36;;;;;;;7.05;3.20;;;;;;;;;;5076025;28;20375;-33
2024/02/10 08:50:04;;;;;;;5.33;3.23;;;;;;;;;;5075614;28;20020;-33
2024/02/10 08:52:30;;;;;;;8.57;3.40;;;;;;;;;;5075900;28;20259;-34
2024/02/10 08:54:56;;;;;;;6.45;3.05;;;;;;;;;;5075808;28;20070;-33
2024/02/10 08:57:25;;;;;;;8.45;3.42;;;;;;;;;;5075423;28;20028;-33
2024/02/10 08:59:51;;;;;;;6.53;3.42;;;;;;;;;;5075392;28;20162;-33
2024/02/10 09:02:22;;;;;;;8.10;3.53;;;;;;;;;;5075356;28;20111;-33
2024/02/10 09:04:49;;;;;;;8.98;3.38;;;;;;;;;;5074761;28;20024;-32
2024/02/10 09:07:18;;;;;;;8.25;3.60;;;;;;;;;;5075477;28;20426;-33
2024/02/10 09:09:45;;;;;;;9.35;3.38;;;;;;;;;;5074929;28;20100;-33
2024/02/10 09:12:12;;;;;;;5.75;3.40;;;;;;;;;;5075157;28;20089;-33
2024/02/10 09:14:37;;;;;;;5.82;3.30;;;;;;;;;;5075046;28;20020;-33
2024/02/10 09:17:03;;;;;;;8.98;3.65;;;;;;;;;;5074117;28;20024;-33
2024/02/10 09:19:28;;;;;;;7.72;3.53;;;;;;;;;;5073269;28;20016;-33
2024/02/10 09:21:57;;;;;;;8.37;3.50;;;;;;;;;;5074712;28;20024;-33
2024/02/10 09:24:23;;;;;;;6.95;3.50;;;;;;;;;;5072840;28;20259;-33
2024/02/10 09:26:49;;;;;;;6.32;3.50;;;;;;;;;;5073335;28;20016;-33
2024/02/10 09:29:14;;;;;;;5.95;3.42;;;;;;;;;;5072974;28;20517;-33
2024/02/10 09:31:43;;;;;;;7.93;3.65;;;;;;;;;;5073170;28;20050;-33
2024/02/10 09:34:11;;;;;;;8.00;3.55;;;;;;;;;;5072993;28;20020;-33
2024/02/10 09:36:36;;;;;;;6.82;3.60;;;;;;;;;;5073324;28;20025;-33
2024/02/10 09:39:03;;;;;;;8.07;3.70;;;;;;;;;;5074003;28;20505;-33
2024/02/10 09:41:28;;;;;;;8.25;3.53;;;;;;;;;;5074043;28;20028;-34
2024/02/10 09:43:53;;;;;;;7.97;3.43;;;;;;;;;;5074815;28;20012;-33
2024/02/10 09:46:19;;;;;;;11.17;4.80;;;;;;;;;;5074514;28;20255;-33
2024/02/10 09:48:47;;;;;;;9.93;5.20;;;;;;;;;;5074709;28;20342;-33
2024/02/10 09:51:13;;;;;;;6.72;3.97;;;;;;;;;;5074359;28;20352;-33
2024/02/10 09:53:40;;;;;;;5.90;3.90;;;;;;;;;;5073275;28;20020;-33
2024/02/10 09:56:10;;;;;;;8.32;3.75;;;;;;;;;;5073436;28;20021;-33
2024/02/10 09:58:35;;;;;;;7.88;3.25;;;;;;;;;;5074012;28;20052;-33
2024/02/10 10:01:01;;;;;;;6.97;3.70;;;;;;;;;;5074646;28;20106;-33
2024/02/10 10:03:26;;;;;;;9.32;3.75;;;;;;;;;;5074539;28;20029;-33
2024/02/10 10:05:52;;;;;;;6.28;3.70;;;;;;;;;;5074124;28;20066;-33
2024/02/10 10:08:18;;;;;;;7.10;3.60;;;;;;;;;;5074348;28;20028;-33
2024/02/10 10:10:43;;;;;;;7.60;3.80;;;;;;;;;;5072858;28;20478;-33
2024/02/10 10:13:11;;;;;;;8.00;4.10;;;;;;;;;;5074034;28;20013;-33
2024/02/10 10:15:38;;;;;;;9.32;3.45;;;;;;;;;;5074530;28;20131;-33
2024/02/10 10:18:11;;;;;;;9.77;3.92;;;;;;;;;;5074159;28;20037;-33
2024/02/10 10:20:36;;;;;;;7.65;4.00;;;;;;;;;;5074164;28;20020;-33
2024/02/10 10:23:02;;;;;;;8.23;3.80;;;;;;;;;;5073176;28;20008;-34
2024/02/10 10:25:27;;;;;;;9.43;4.68;;;;;;;;;;5073964;28;20259;-34
2024/02/10 10:27:56;;;;;;;11.07;3.80;;;;;;;;;;5073748;28;20013;-34
2024/02/10 10:30:25;;;;;;;6.22;3.47;;;;;;;;;;5073916;28;20270;-34
2024/02/10 10:32:52;;;;;;;7.72;3.75;;;;;;;;;;5073642;28;20031;-34
2024/02/10 10:35:18;;;;;;;10.02;4.20;;;;;;;;;;5073657;28;20150;-33
2024/02/10 10:37:44;;;;;;;8.98;4.10;;;;;;;;;;5074054;28;20024;-33
2024/02/10 10:40:11;;;;;;;7.57;4.32;;;;;;;;;;5074143;28;20363;-34
2024/02/10 10:42:36;;;;;;;12.43;4.07;;;;;;;;;;5073577;28;20012;-34
2024/02/10 10:45:03;;;;;;;6.60;3.83;;;;;;;;;;5073458;28;20020;-34
2024/02/10 10:47:28;;;;;;;7.97;3.90;;;;;;;;;;5073995;28;20020;-34
2024/02/10 10:49:54;;;;;;;7.95;4.13;;;;;;;;;;5073402;28;20024;-34
2024/02/10 10:52:20;;;;;;;6.22;3.80;;;;;;;;;;5073738;28;20073;-34
2024/02/10 10:54:47;;;;;;;5.88;3.45;;;;;;;;;;5073775;28;20048;-34
2024/02/10 10:57:16;;;;;;;6.43;3.80;;;;;;;;;;5073260;28;20021;-37
2024/02/10 10:59:44;;;;;;;7.60;3.70;;;;;;;;;;5073199;28;20107;-33
2024/02/10 11:02:12;;;;;;;9.75;4.20;;;;;;;;;;5072983;28;20017;-34
2024/02/10 11:04:38;;;;;;;8.07;4.13;;;;;;;;;;5072817;28;20016;-33
2024/02/10 11:07:08;;;;;;;6.43;3.67;;;;;;;;;;5073091;28;20028;-34
2024/02/10 11:09:42;;;;;;;11.95;4.28;;;;;;;;;;5073420;28;20486;-34
2024/02/10 11:12:10;;;;;;;7.05;3.92;;;;;;;;;;5073030;28;20071;-34
2024/02/10 11:14:35;;;;;;;10.90;4.20;;;;;;;;;;5073770;28;20452;-35
2024/02/10 11:17:09;;;;;;;10.87;3.80;;;;;;;;;;5073103;28;20021;-34
2024/02/10 11:19:34;;;;;;;10.73;4.18;;;;;;;;;;5073156;28;20262;-34
2024/02/10 11:22:01;;;;;;;8.75;3.80;;;;;;;;;;5073209;28;20012;-34
2024/02/10 11:24:29;;;;;;;7.82;4.07;;;;;;;;;;5073202;28;20463;-35
2024/02/10 11:26:55;;;;;;;10.45;3.80;;;;;;;;;;5073208;28;20013;-34
2024/02/10 11:29:21;;;;;;;8.82;4.20;;;;;;;;;;5073463;28;20016;-34
2024/02/10 11:31:46;;;;;;;7.22;4.00;;;;;;;;;;5072862;28;20021;-34
2024/02/10 11:34:16;;;;;;;8.40;4.13;;;;;;;;;;5075784;28;20425;-34
2024/02/10 11:36:50;;;;;;;8.77;3.90;;;;;;;;;;5076910;28;20352;-34
2024/02/10 11:39:16;;;;;;;8.73;3.75;;;;;;;;;;5076587;28;20020;-34
2024/02/10 11:41:41;;;;;;;11.23;3.75;;;;;;;;;;5076726;28;20100;-34
2024/02/10 11:44:07;;;;;;;8.80;4.00;;;;;;;;;;5076442;28;20020;-34
2024/02/10 11:46:33;;;;;;;9.23;3.70;;;;;;;;;;5077167;28;20062;-34
2024/02/10 11:48:59;;;;;;;7.30;3.72;;;;;;;;;;5076864;28;20012;-33
2024/02/10 11:51:27;;;;;;;7.25;3.47;;;;;;;;;;5076992;28;20409;-34
2024/02/10 11:53:52;;;;;;;10.48;4.10;;;;;;;;;;5076969;28;20077;-34
2024/02/10 11:56:17;;;;;;;9.00;4.10;;;;;;;;;;5075504;28;20413;-34
2024/02/10 11:58:45;;;;;;;6.43;3.50;;;;;;;;;;5074898;28;20032;-34
2024/02/10 12:01:11;;;;;;;7.22;3.55;;;;;;;;;;5074612;28;20627;-34
2024/02/10 12:03:36;;;;;;;6.15;3.55;;;;;;;;;;5074847;28;20012;-34
2024/02/10 12:06:01;;;;;;;8.93;3.67;;;;;;;;;;5075373;28;20079;-34
2024/02/10 12:08:29;;;;;;;8.85;3.80;;;;;;;;;;5076218;28;20812;-34
2024/02/10 12:10:55;;;;;;;7.38;3.83;;;;;;;;;;5076173;28;20020;-34
2024/02/10 12:13:20;;;;;;;5.70;3.50;;;;;;;;;;5076110;28;20025;-34
2024/02/10 12:15:47;;;;;;;6.30;3.60;;;;;;;;;;5075353;28;20326;-34
2024/02/10 12:18:12;;;;;;;9.13;3.83;;;;;;;;;;5076690;28;20063;-34
2024/02/10 12:20:39;;;;;;;6.67;3.43;;;;;;;;;;5076245;28;20455;-33
2024/02/10 12:23:04;;;;;;;7.00;3.65;;;;;;;;;;5076465;28;20773;-34
2024/02/10 12:25:30;;;;;;;8.82;4.00;;;;;;;;;;5076036;28;20099;-34
2024/02/10 12:27:57;;;;;;;12.98;4.20;;;;;;;;;;5074218;28;20021;-34
2024/02/10 12:30:22;;;;;;;9.57;4.13;;;;;;;;;;5074677;28;20024;-34
2024/02/10 12:32:51;;;;;;;6.90;4.03;;;;;;;;;;5075088;28;20082;-34
2024/02/10 12:35:16;;;;;;;8.85;3.78;;;;;;;;;;5075457;28;20679;-34
2024/02/10 12:37:44;;;;;;;7.15;3.60;;;;;;;;;;5075644;28;20052;-34
2024/02/10 12:40:13;;;;;;;9.52;3.88;;;;;;;;;;5075656;28;20039;-34
2024/02/10 12:42:42;;;;;;;5.13;3.60;;;;;;;;;;5076011;28;20547;-34
2024/02/10 12:45:07;;;;;;;7.03;3.78;;;;;;;;;;5075079;28;20081;-32
2024/02/10 12:47:32;;;;;;;9.80;3.90;;;;;;;;;;5076327;28;20021;-35
2024/02/10 12:49:58;;;;;;;5.00;3.43;;;;;;;;;;5075690;28;20025;-35
2024/02/10 12:52:25;;;;;;;6.10;3.67;;;;;;;;;;5075972;28;20257;-35
2024/02/10 12:54:50;;;;;;;8.23;3.88;;;;;;;;;;5075609;28;20027;-34
2024/02/10 12:57:18;;;;;;;9.88;3.95;;;;;;;;;;5075966;28;20028;-34
2024/02/10 12:59:44;;;;;;;5.30;3.58;;;;;;;;;;5075843;28;20013;-34
2024/02/10 13:02:10;;;;;;;6.20;3.63;;;;;;;;;;5076063;28;20341;-34
2024/02/10 13:04:36;;;;;;;8.90;3.70;;;;;;;;;;5075970;28;20021;-34
2024/02/10 13:07:01;;;;;;;10.93;3.50;;;;;;;;;;5075263;28;20484;-34
2024/02/10 13:09:26;;;;;;;6.10;3.30;;;;;;;;;;5075895;28;20025;-34
2024/02/10 13:11:51;;;;;;;9.30;3.80;;;;;;;;;;5075556;28;20251;-34
2024/02/10 13:14:16;;;;;;;7.38;3.70;;;;;;;;;;5075246;28;20024;-34
2024/02/10 13:16:42;;;;;;;9.30;4.27;;;;;;;;;;5075841;28;20005;-34
2024/02/10 13:19:13;;;;;;;6.60;3.50;;;;;;;;;;5075168;28;20278;-34
2024/02/10 13:21:38;;;;;;;7.40;3.47;;;;;;;;;;5075163;28;20259;-35
2024/02/10 13:24:05;;;;;;;6.53;3.40;;;;;;;;;;5075646;28;20023;-33
2024/02/10 13:26:30;;;;;;;9.20;3.58;;;;;;;;;;5074971;28;20028;-34
2024/02/10 13:28:56;;;;;;;11.83;4.00;;;;;;;;;;5075522;28;20024;-34
2024/02/10 13:31:21;;;;;;;10.18;3.90;;;;;;;;;;5073588;28;20675;-33
2024/02/10 13:33:47;;;;;;;12.23;3.90;;;;;;;;;;5075101;28;20103;-34
2024/02/10 13:36:15;;;;;;;9.18;4.30;;;;;;;;;;5075018;28;20059;-33
2024/02/10 14:00:34;;;;;;;11.35;4.70;;;;;;;;;;5074371;28;20027;-34
2024/02/10 14:03:00;;;;;;;9.10;4.43;;;;;;;;;;5074493;28;20023;-33
2024/02/10 14:05:41;;;;;;;7.10;4.53;;;;;;;;;;5074254;28;20036;-34
2024/02/10 14:10:46;;;;;;;8.07;5.13;;;;;;;;;;5074505;28;20027;-34
2024/02/10 14:13:17;;;;;;;9.63;6.03;;;;;;;;;;5074334;28;20017;-34
2024/02/10 14:15:52;;;;;;;13.13;5.55;;;;;;;;;;5074023;28;20021;-34
2024/02/10 14:18:24;;;;;;;9.75;5.55;;;;;;;;;;5074222;28;20020;-34
2024/02/10 14:20:49;;;;;;;10.25;5.78;;;;;;;;;;5074236;28;20101;-34
2024/02/10 14:23:16;;;;;;;12.53;5.90;;;;;;;;;;5074223;28;20017;-34
2024/02/10 14:25:42;;;;;;;8.82;5.60;;;;;;;;;;5074089;28;20392;-33
2024/02/10 14:28:23;;;;;;;9.25;5.78;;;;;;;;;;5073816;28;20099;-33
2024/02/10 14:30:49;;;;;;;11.10;5.70;;;;;;;;;;5073794;28;20099;-33
2024/02/10 14:33:15;;;;;;;9.45;5.53;;;;;;;;;;5074009;28;20070;-33
2024/02/10 14:36:14;;;;;;;9.25;5.53;;;;;;;;;;5073983;28;20031;-34
2024/02/10 14:38:48;;;;;;;9.52;5.50;;;;;;;;;;5073906;28;20107;-34
2024/02/10 14:41:14;;;;;;;11.23;5.97;;;;;;;;;;5073707;28;20367;-33
2024/02/10 14:43:39;;;;;;;10.85;5.82;;;;;;;;;;5073537;28;20095;-33
2024/02/10 14:46:05;;;;;;;7.70;5.50;;;;;;;;;;5073590;28;20021;-33
2024/02/10 14:48:30;;;;;;;8.05;5.05;;;;;;;;;;5072393;28;20099;-33
2024/02/10 14:50:56;;;;;;;9.48;5.10;;;;;;;;;;5073514;28;20025;-33
2024/02/10 14:53:30;;;;;;;10.02;4.75;;;;;;;;;;5073516;28;20387;-33
2024/02/10 14:55:55;;;;;;;6.50;4.72;;;;;;;;;;5073601;28;20032;-33
2024/02/10 14:58:21;;;;;;;7.57;4.80;;;;;;;;;;5073324;28;20524;-33
2024/02/10 15:00:46;;;;;;;9.27;4.90;;;;;;;;;;5072132;28;20259;-33